createdAt,value
2018-12-21T00:00:32.508Z,128.13
2018-12-21T00:03:00.710Z,135.50
2018-12-21T00:05:28.882Z,131.77
2018-12-21T00:07:58.666Z,141.77
2018-12-21T00:10:27.197Z,142.33
2018-12-21T00:12:56.406Z,118.83
2018-12-21T00:15:24.584Z,136.07
2018-12-21T00:17:52.783Z,131.27
2018-12-21T00:20:20.955Z,130.00
2018-12-21T00:22:49.140Z,137.07
2018-12-21T00:25:17.353Z,130.10
2018-12-21T00:27:45.522Z,131.00
2018-12-21T00:30:15.898Z,134.40
2018-12-21T00:32:49.716Z,141.87
2018-12-21T00:35:23.434Z,130.83
2018-12-21T00:37:57.312Z,125.23
2018-12-21T00:40:31.076Z,120.03
2018-12-21T00:43:04.878Z,120.13
2018-12-21T00:45:35.076Z,106.07
2018-12-21T00:48:03.260Z,115.30
2018-12-21T00:50:31.478Z,111.93
2018-12-21T00:52:59.779Z,132.60
2018-12-21T00:55:27.958Z,122.63
2018-12-21T00:57:56.185Z,121.10
2018-12-21T01:00:25.521Z,121.60
2018-12-21T01:02:53.700Z,126.07
2018-12-21T01:05:22.041Z,102.70
2018-12-21T01:07:50.316Z,120.30
2018-12-21T01:10:18.752Z,111.27
2018-12-21T01:12:46.948Z,105.53
2018-12-21T01:15:15.128Z,103.87
2018-12-21T01:17:43.306Z,114.60
2018-12-21T01:20:11.548Z,116.70
2018-12-21T01:22:39.736Z,110.57
2018-12-21T01:25:07.907Z,120.83
2018-12-21T01:27:36.147Z,114.27
2018-12-21T01:30:05.305Z,109.00
2018-12-21T01:32:33.481Z,116.33
2018-12-21T01:35:01.684Z,116.80
2018-12-21T01:37:29.861Z,100.60
2018-12-21T01:39:58.040Z,97.20
2018-12-21T01:42:26.249Z,102.63
2018-12-21T01:44:54.420Z,106.43
2018-12-21T01:47:22.672Z,107.40
2018-12-21T01:49:50.870Z,108.90
2018-12-21T01:52:19.038Z,113.17
2018-12-21T01:54:47.217Z,112.70
2018-12-21T01:57:15.403Z,122.37
2018-12-21T01:59:43.584Z,115.07
2018-12-21T02:02:11.753Z,110.07
2018-12-21T02:04:39.944Z,94.67
2018-12-21T02:07:08.113Z,92.87
2018-12-21T02:09:36.279Z,97.20
2018-12-21T02:12:04.545Z,116.83
2018-12-21T02:14:32.802Z,100.97
2018-12-21T02:17:00.972Z,94.90
2018-12-21T02:19:29.183Z,106.27
2018-12-21T02:21:57.357Z,96.03
2018-12-21T02:24:25.534Z,93.30
2018-12-21T02:26:53.720Z,78.70
2018-12-21T02:29:21.900Z,84.67
2018-12-21T02:31:50.280Z,70.63
2018-12-21T02:34:18.480Z,74.17
2018-12-21T02:36:46.656Z,77.43
2018-12-21T02:39:14.920Z,79.83
2018-12-21T02:41:43.241Z,65.50
2018-12-21T02:44:11.441Z,79.00
2018-12-21T02:46:39.610Z,76.87
2018-12-21T02:49:07.816Z,72.93
2018-12-21T02:51:36.011Z,74.07
2018-12-21T02:54:04.202Z,61.40
2018-12-21T02:56:32.420Z,58.30
2018-12-21T02:59:00.607Z,47.17
2018-12-21T03:01:28.885Z,48.07
2018-12-21T03:03:57.141Z,42.10
2018-12-21T03:06:25.514Z,38.13
2018-12-21T03:08:53.706Z,40.20
2018-12-21T03:11:22.618Z,41.87
2018-12-21T03:13:50.799Z,34.97
2018-12-21T03:16:19.001Z,36.10
2018-12-21T03:18:48.974Z,37.60
2018-12-21T03:21:17.404Z,37.83
2018-12-21T03:23:45.573Z,46.70
2018-12-21T03:26:13.769Z,68.50
2018-12-21T03:28:41.947Z,80.53
2018-12-21T03:31:10.326Z,86.57
2018-12-21T03:33:38.544Z,89.07
2018-12-21T03:36:06.752Z,112.40
2018-12-21T03:38:34.946Z,115.90
2018-12-21T03:41:03.331Z,169.20
2018-12-21T03:43:31.816Z,153.47
2018-12-21T03:46:00.011Z,114.90
2018-12-21T03:48:28.215Z,125.80
2018-12-21T03:50:56.509Z,152.67
2018-12-21T03:53:24.686Z,144.80
2018-12-21T03:55:52.921Z,130.40
2018-12-21T03:58:21.130Z,108.30
2018-12-21T04:00:49.314Z,135.87
2018-12-21T04:03:17.518Z,143.03
2018-12-21T04:05:45.704Z,137.00
2018-12-21T04:08:13.883Z,140.33
2018-12-21T04:10:42.175Z,135.57
2018-12-21T04:13:10.356Z,152.27
2018-12-21T04:15:38.688Z,121.20
2018-12-21T04:18:06.893Z,126.97
2018-12-21T04:20:35.086Z,109.40
2018-12-21T04:23:03.288Z,127.23
2018-12-21T04:25:31.520Z,133.00
2018-12-21T04:27:59.757Z,111.47
2018-12-21T04:30:27.939Z,116.50
2018-12-21T04:32:56.143Z,109.90
2018-12-21T04:35:24.325Z,102.70
2018-12-21T04:37:52.552Z,121.40
2018-12-21T04:40:20.769Z,110.33
2018-12-21T04:42:48.939Z,96.67
2018-12-21T04:45:17.246Z,120.83
2018-12-21T04:47:45.464Z,113.77
2018-12-21T04:50:13.647Z,126.27
2018-12-21T04:52:43.446Z,111.27
2018-12-21T04:55:12.114Z,117.60
2018-12-21T04:57:40.295Z,123.30
2018-12-21T05:00:08.476Z,115.70
2018-12-21T05:02:36.792Z,92.37
2018-12-21T05:05:05.106Z,116.60
2018-12-21T05:07:33.299Z,104.87
2018-12-21T05:10:01.549Z,90.63
2018-12-21T05:12:29.883Z,100.50
2018-12-21T05:14:58.227Z,91.20
2018-12-21T05:17:26.440Z,107.20
2018-12-21T05:19:54.722Z,103.30
2018-12-21T05:22:22.910Z,110.07
2018-12-21T05:24:51.127Z,118.47
2018-12-21T05:27:19.315Z,99.77
2018-12-21T05:29:47.489Z,90.40
2018-12-21T05:32:15.681Z,94.47
2018-12-21T05:34:43.858Z,97.50
2018-12-21T05:37:12.035Z,84.87
2018-12-21T05:39:40.257Z,89.97
2018-12-21T05:42:08.444Z,92.53
2018-12-21T05:44:36.661Z,84.67
2018-12-21T05:47:05.028Z,84.03
2018-12-21T05:49:33.212Z,99.60
2018-12-21T05:52:01.394Z,91.33
2018-12-21T05:54:29.602Z,85.37
2018-12-21T05:56:57.791Z,86.50
2018-12-21T05:59:25.968Z,90.30
2018-12-21T06:01:54.159Z,89.17
2018-12-21T06:04:22.411Z,80.87
2018-12-21T06:06:50.596Z,91.47
2018-12-21T06:09:18.789Z,77.67
2018-12-21T06:11:46.980Z,90.03
2018-12-21T06:14:15.160Z,89.50
2018-12-21T06:16:43.364Z,77.73
2018-12-21T06:19:12.374Z,93.40
2018-12-21T06:21:40.805Z,87.17
2018-12-21T06:24:09.005Z,80.00
2018-12-21T06:26:37.252Z,88.60
2018-12-21T06:29:05.535Z,88.57
2018-12-21T06:31:33.793Z,81.63
2018-12-21T06:34:01.986Z,84.60
2018-12-21T06:36:30.173Z,82.37
2018-12-21T06:38:58.503Z,76.30
2018-12-21T06:41:26.672Z,84.83
2018-12-21T06:43:54.848Z,77.27
2018-12-21T06:46:23.057Z,74.30
2018-12-21T06:48:51.230Z,83.87
2018-12-21T06:51:19.412Z,80.37
2018-12-21T06:53:47.677Z,86.23
2018-12-21T06:56:15.935Z,81.50
2018-12-21T06:58:44.118Z,87.63
2018-12-21T07:01:12.317Z,78.87
2018-12-21T07:03:40.509Z,82.20
2018-12-21T07:06:08.808Z,81.33
2018-12-21T07:08:37.016Z,82.57
2018-12-21T07:11:05.194Z,78.07
2018-12-21T07:13:33.368Z,80.47
2018-12-21T07:16:01.687Z,75.60
2018-12-21T07:18:29.876Z,77.80
2018-12-21T07:20:58.061Z,83.67
2018-12-21T07:23:27.273Z,72.07
2018-12-21T07:25:56.484Z,76.57
2018-12-21T07:28:24.657Z,82.40
2018-12-21T07:30:52.870Z,82.30
2018-12-21T07:33:21.056Z,74.03
2018-12-21T07:35:49.220Z,74.77
2018-12-21T07:38:17.436Z,79.33
2018-12-21T07:40:45.609Z,73.10
2018-12-21T07:43:13.780Z,89.87
2018-12-21T07:45:41.977Z,76.50
2018-12-21T07:48:10.153Z,81.13
2018-12-21T07:50:38.329Z,85.60
2018-12-21T07:53:06.562Z,75.53
2018-12-21T07:55:34.736Z,88.83
2018-12-21T07:58:02.908Z,88.57
2018-12-21T08:00:31.191Z,90.53
2018-12-21T08:02:59.392Z,81.07
2018-12-21T08:05:27.568Z,83.90
2018-12-21T08:07:55.763Z,89.00
2018-12-21T08:10:23.964Z,81.83
2018-12-21T08:12:52.152Z,72.77
2018-12-21T08:15:20.342Z,86.00
2018-12-21T08:17:48.513Z,86.93
2018-12-21T08:20:16.683Z,77.17
2018-12-21T08:22:44.884Z,84.47
2018-12-21T08:25:13.074Z,85.30
2018-12-21T08:27:41.245Z,82.60
2018-12-21T08:30:09.979Z,72.23
2018-12-21T08:32:38.151Z,70.13
2018-12-21T08:35:06.326Z,77.23
2018-12-21T08:37:34.529Z,84.50
2018-12-21T08:40:02.717Z,69.50
2018-12-21T08:42:30.909Z,69.03
2018-12-21T08:44:59.112Z,66.47
2018-12-21T08:47:27.284Z,70.43
2018-12-21T08:49:55.456Z,67.43
2018-12-21T08:52:23.647Z,66.60
2018-12-21T08:54:51.817Z,65.00
2018-12-21T08:57:20.169Z,80.17
2018-12-21T08:59:48.358Z,65.90
2018-12-21T09:02:16.549Z,73.77
2018-12-21T09:04:44.718Z,74.57
2018-12-21T09:07:12.927Z,71.27
2018-12-21T09:09:41.533Z,72.50
2018-12-21T09:12:09.764Z,70.73
2018-12-21T09:14:38.031Z,67.47
2018-12-21T09:17:06.274Z,67.60
2018-12-21T09:19:34.449Z,61.73
2018-12-21T09:22:02.647Z,68.07
2018-12-21T09:24:30.814Z,65.67
2018-12-21T09:26:58.996Z,68.73
2018-12-21T09:29:27.187Z,60.93
2018-12-21T09:31:55.362Z,53.13
2018-12-21T09:34:23.529Z,62.03
2018-12-21T09:36:51.780Z,60.30
2018-12-21T09:39:19.960Z,62.73
2018-12-21T09:41:48.140Z,60.07
2018-12-21T09:44:16.354Z,65.40
2018-12-21T09:46:44.532Z,58.60
2018-12-21T09:49:12.708Z,62.73
2018-12-21T09:51:40.923Z,55.90
2018-12-21T09:54:10.079Z,58.00
2018-12-21T09:56:38.726Z,63.03
2018-12-21T09:59:08.025Z,58.07
2018-12-21T10:01:36.471Z,58.40
2018-12-21T10:04:04.652Z,52.27
2018-12-21T10:06:32.850Z,60.93
2018-12-21T10:09:01.017Z,59.17
2018-12-21T10:11:29.187Z,58.47
2018-12-21T10:13:57.404Z,60.17
2018-12-21T10:16:25.660Z,59.23
2018-12-21T10:18:53.842Z,59.60
2018-12-21T10:21:22.077Z,62.30
2018-12-21T10:23:50.267Z,61.10
2018-12-21T10:26:18.440Z,59.77
2018-12-21T10:31:21.080Z,62.83
2018-12-21T10:33:49.304Z,65.60
2018-12-21T10:36:17.472Z,61.53
2018-12-21T10:38:45.661Z,64.93
2018-12-21T10:41:13.854Z,69.00
2018-12-21T10:43:42.075Z,64.07
2018-12-21T10:46:10.321Z,76.40
2018-12-21T10:48:38.513Z,64.53
2018-12-21T10:51:06.688Z,62.20
2018-12-21T10:53:34.856Z,60.93
2018-12-21T10:56:03.046Z,55.37
2018-12-21T10:58:31.331Z,62.83
2018-12-21T11:00:59.538Z,65.10
2018-12-21T11:03:27.837Z,57.13
2018-12-21T11:05:56.025Z,60.70
2018-12-21T11:08:24.432Z,63.50
2018-12-21T11:10:52.638Z,57.80
2018-12-21T11:13:20.811Z,63.83
2018-12-21T11:15:48.988Z,59.70
2018-12-21T11:18:17.187Z,61.17
2018-12-21T11:20:45.364Z,55.03
2018-12-21T11:23:13.538Z,54.00
2018-12-21T11:25:41.732Z,58.30
2018-12-21T11:28:09.908Z,53.70
2018-12-21T11:30:38.089Z,55.20
2018-12-21T11:33:06.374Z,59.97
2018-12-21T11:35:34.574Z,52.50
2018-12-21T11:38:02.743Z,54.57
2018-12-21T11:40:31.052Z,54.93
2018-12-21T11:42:59.226Z,54.07
2018-12-21T11:45:27.394Z,63.63
2018-12-21T11:47:55.593Z,58.70
2018-12-21T11:50:23.789Z,58.63
2018-12-21T11:52:51.964Z,60.10
2018-12-21T11:55:20.168Z,66.93
2018-12-21T11:57:48.358Z,53.10
2018-12-21T12:00:16.625Z,55.67
2018-12-21T12:02:44.934Z,60.00
2018-12-21T12:05:13.107Z,53.40
2018-12-21T12:07:41.378Z,49.67
2018-12-21T12:10:09.573Z,58.00
2018-12-21T12:12:39.331Z,57.67
2018-12-21T12:15:07.729Z,56.37
2018-12-21T12:17:35.931Z,65.70
2018-12-21T12:20:05.904Z,54.87
2018-12-21T12:22:34.094Z,55.10
2018-12-21T12:25:02.286Z,58.10
2018-12-21T12:27:30.462Z,57.37
2018-12-21T12:29:58.635Z,63.40
2018-12-21T12:32:26.836Z,64.20
2018-12-21T12:34:54.996Z,59.20
2018-12-21T12:37:23.172Z,59.80
2018-12-21T12:39:51.364Z,72.70
2018-12-21T12:42:19.642Z,64.17
2018-12-21T12:44:47.825Z,61.73
2018-12-21T12:47:16.426Z,67.77
2018-12-21T12:49:44.628Z,60.23
2018-12-21T12:52:12.802Z,65.10
2018-12-21T12:54:41.108Z,62.93
2018-12-21T12:57:09.292Z,68.50
2018-12-21T12:59:37.465Z,67.67
2018-12-21T13:04:50.294Z,61.00
2018-12-21T13:07:18.477Z,65.33
2018-12-21T13:09:46.644Z,61.90
2018-12-21T13:12:14.837Z,65.93
2018-12-21T13:14:43.085Z,67.67
2018-12-21T13:17:11.347Z,59.53
2018-12-21T13:19:39.527Z,58.10
2018-12-21T13:22:07.715Z,61.23
2018-12-21T13:24:35.887Z,50.87
2018-12-21T13:27:04.058Z,58.10
2018-12-21T13:29:32.240Z,61.20
2018-12-21T13:32:00.415Z,51.63
2018-12-21T13:34:28.593Z,56.50
2018-12-21T13:36:56.805Z,55.03
2018-12-21T13:39:24.979Z,53.53
2018-12-21T13:41:53.159Z,63.90
2018-12-21T13:44:21.362Z,45.77
2018-12-21T13:46:49.565Z,50.37
2018-12-21T13:49:17.726Z,48.83
2018-12-21T13:51:45.932Z,46.83
2018-12-21T13:54:14.205Z,47.27
2018-12-21T13:56:43.142Z,44.47
2018-12-21T13:59:11.461Z,42.80
2018-12-21T14:01:39.648Z,44.47
2018-12-21T14:04:07.829Z,38.30
2018-12-21T14:06:36.024Z,40.73
2018-12-21T14:09:06.299Z,39.23
2018-12-21T14:11:34.575Z,42.13
2018-12-21T14:14:02.777Z,37.70
2018-12-21T14:16:30.973Z,39.00
2018-12-21T14:18:59.152Z,41.93
2018-12-21T14:21:27.347Z,44.40
2018-12-21T14:23:55.527Z,42.33
2018-12-21T14:26:23.709Z,37.97
2018-12-21T14:28:51.900Z,37.90
2018-12-21T14:31:20.132Z,41.77
2018-12-21T14:33:48.300Z,38.93
2018-12-21T14:36:16.592Z,38.83
2018-12-21T14:38:44.883Z,38.50
2018-12-21T14:41:13.057Z,38.70
2018-12-21T14:43:41.256Z,39.47
2018-12-21T14:46:09.916Z,42.80
2018-12-21T14:48:38.084Z,42.57
2018-12-21T14:51:06.282Z,44.33
2018-12-21T14:53:34.565Z,40.03
2018-12-21T14:56:02.842Z,38.97
2018-12-21T14:58:31.032Z,41.40
2018-12-21T15:00:59.201Z,42.50
2018-12-21T15:03:27.385Z,41.53
2018-12-21T15:05:55.601Z,47.70
2018-12-21T15:08:23.776Z,44.97
2018-12-21T15:10:51.968Z,39.23
2018-12-21T15:13:20.163Z,40.57
2018-12-21T15:15:48.339Z,46.40
2018-12-21T15:18:16.522Z,43.60
2018-12-21T15:20:44.731Z,44.03
2018-12-21T15:23:13.116Z,43.03
2018-12-21T15:25:46.032Z,43.67
2018-12-21T15:28:11.711Z,46.73
2018-12-21T15:30:39.906Z,41.17
2018-12-21T15:33:08.080Z,42.87
2018-12-21T15:35:36.317Z,40.43
2018-12-21T15:38:04.495Z,47.10
2018-12-21T15:40:32.660Z,49.23
2018-12-21T15:43:00.877Z,49.57
2018-12-21T15:45:29.052Z,49.77
2018-12-21T15:47:57.241Z,44.40
2018-12-21T15:50:25.435Z,44.43
2018-12-21T15:52:53.615Z,50.83
2018-12-21T15:55:21.811Z,51.10
2018-12-21T15:57:50.012Z,48.33
2018-12-21T16:00:18.185Z,51.63
2018-12-21T16:02:46.617Z,40.73
2018-12-21T16:05:14.804Z,46.40
2018-12-21T16:07:42.982Z,48.10
2018-12-21T16:10:11.155Z,51.57
2018-12-21T16:12:39.354Z,48.30
2018-12-21T16:15:07.527Z,47.90
2018-12-21T16:17:35.701Z,43.63
2018-12-21T16:20:08.488Z,46.43
2018-12-21T16:22:42.304Z,44.97
2018-12-21T16:25:06.871Z,42.73
2018-12-21T16:27:35.073Z,49.63
2018-12-21T16:30:03.716Z,48.07
2018-12-21T16:32:31.948Z,46.60
2018-12-21T16:35:00.180Z,47.17
2018-12-21T16:37:28.362Z,51.67
2018-12-21T16:39:56.549Z,49.83
2018-12-21T16:42:25.222Z,49.17
2018-12-21T16:44:53.466Z,47.47
2018-12-21T16:47:21.633Z,50.93
2018-12-21T16:49:49.827Z,57.43
2018-12-21T16:52:18.021Z,53.57
2018-12-21T16:54:46.316Z,57.23
2018-12-21T16:57:14.519Z,47.43
2018-12-21T16:59:42.721Z,53.50
2018-12-21T17:02:10.992Z,49.80
2018-12-21T17:04:39.181Z,53.23
2018-12-21T17:07:07.581Z,59.33
2018-12-21T17:09:35.772Z,51.70
2018-12-21T17:12:03.968Z,49.40
2018-12-21T17:14:32.246Z,52.30
2018-12-21T17:17:00.514Z,45.67
2018-12-21T17:19:28.728Z,47.67
2018-12-21T17:21:56.907Z,45.10
2018-12-21T17:24:25.076Z,59.03
2018-12-21T17:26:53.324Z,53.30
2018-12-21T17:29:21.498Z,48.23
2018-12-21T17:31:49.677Z,46.47
2018-12-21T17:34:17.981Z,49.07
2018-12-21T17:36:46.151Z,45.50
2018-12-21T17:39:14.344Z,41.53
2018-12-21T17:41:42.571Z,41.97
2018-12-21T17:44:10.761Z,43.20
2018-12-21T17:46:38.934Z,43.93
2018-12-21T17:49:13.012Z,41.90
2018-12-21T17:51:41.191Z,36.87
2018-12-21T17:54:09.402Z,37.03
2018-12-21T17:56:37.605Z,39.63
2018-12-21T17:59:05.798Z,38.50
2018-12-21T18:01:34.223Z,42.60
2018-12-21T18:04:03.455Z,42.73
2018-12-21T18:06:31.631Z,46.53
2018-12-21T18:08:59.829Z,42.53
2018-12-21T18:11:28.029Z,41.20
2018-12-21T18:13:56.197Z,44.43
2018-12-21T18:16:24.389Z,37.80
2018-12-21T18:18:52.590Z,34.97
2018-12-21T18:21:20.759Z,33.30
2018-12-21T18:23:49.039Z,30.10
2018-12-21T18:26:17.243Z,34.63
2018-12-21T18:28:45.421Z,30.60
2018-12-21T18:31:15.178Z,34.47
2018-12-21T18:33:44.256Z,35.17
2018-12-21T18:36:12.437Z,44.53
2018-12-21T18:38:40.614Z,45.90
2018-12-21T18:41:08.805Z,46.30
2018-12-21T18:43:36.978Z,47.57
2018-12-21T18:46:05.149Z,55.47
2018-12-21T18:48:33.350Z,46.47
2018-12-21T18:51:01.627Z,46.60
2018-12-21T18:53:29.904Z,41.80
2018-12-21T18:55:58.145Z,51.27
2018-12-21T18:58:26.342Z,56.90
2018-12-21T19:00:54.735Z,56.40
2018-12-21T19:03:22.936Z,58.00
2018-12-21T19:05:51.286Z,70.97
2018-12-21T19:08:19.464Z,66.60
2018-12-21T19:10:47.738Z,60.17
2018-12-21T19:13:15.916Z,66.33
2018-12-21T19:15:44.110Z,59.83
2018-12-21T19:18:12.302Z,68.60
2018-12-21T19:20:40.526Z,60.83
2018-12-21T19:23:08.707Z,76.47
2018-12-21T19:25:36.905Z,64.23
2018-12-21T19:28:05.068Z,58.37
2018-12-21T19:30:33.329Z,82.63
2018-12-21T19:33:01.610Z,73.00
2018-12-21T19:35:30.140Z,88.27
2018-12-21T19:37:58.363Z,67.83
2018-12-21T19:40:26.574Z,66.73
2018-12-21T19:42:54.749Z,61.87
2018-12-21T19:45:22.969Z,65.47
2018-12-21T19:47:51.180Z,62.87
2018-12-21T19:50:19.369Z,65.13
2018-12-21T19:52:47.547Z,62.13
2018-12-21T19:55:22.436Z,61.50
2018-12-21T19:57:50.619Z,62.60
2018-12-21T20:00:18.804Z,59.43
2018-12-21T20:02:47.003Z,63.27
2018-12-21T20:05:15.175Z,57.13
2018-12-21T20:07:43.375Z,61.10
2018-12-21T20:10:12.247Z,63.37
2018-12-21T20:12:40.417Z,59.70
2018-12-21T20:15:08.863Z,58.73
2018-12-21T20:17:37.070Z,57.67
2018-12-21T20:20:08.534Z,53.00
2018-12-21T20:22:36.744Z,53.50
2018-12-21T20:25:07.156Z,54.73
2018-12-21T20:27:35.329Z,52.53
2018-12-21T20:30:06.197Z,49.33
2018-12-21T20:32:34.383Z,44.70
2018-12-21T20:35:02.599Z,51.97
2018-12-21T20:37:30.813Z,50.43
2018-12-21T20:39:59.227Z,39.97
